Time;durP1;ratioP1;P1;durP2;ratioP2;P2;SDS_P1;SDS_P2;PMS_P1;PMS_P2;Temp;Humidity;BMP_temperature;BMP_pressure;BME280_temperature;BME280_humidity;BME280_pressure;Samples;Min_cycle;Max_cycle;Signal;HPM_P1;HPM_P2
2021/11/21 00:01:43;;;;;;;3.45;2.28;;;;;;;29.79;19.30;97982.41;5029014;28;20101;-85
2021/11/21 00:04:09;;;;;;;4.18;2.88;;;;;;;28.97;20.15;97979.56;5030770;28;20021;-84
2021/11/21 00:06:35;;;;;;;4.15;1.95;;;;;;;28.79;20.25;97984.41;5027623;28;20037;-84
2021/11/21 00:09:02;;;;;;;3.00;1.60;;;;;;;28.76;20.41;97986.13;5031468;28;20036;-84
2021/11/21 00:11:28;;;;;;;2.20;1.60;;;;;;;28.61;20.45;97983.13;5030294;28;20112;-84
2021/11/21 00:13:54;;;;;;;3.10;1.67;;;;;;;28.53;20.73;97978.22;5030692;28;20033;-84
2021/11/21 00:16:20;;;;;;;2.63;1.58;;;;;;;28.22;20.85;97974.66;5030267;28;20037;-84
2021/11/21 00:18:47;;;;;;;3.28;1.83;;;;;;;28.01;21.13;97973.47;5026271;28;20402;-84
2021/11/21 00:21:13;;;;;;;3.45;1.70;;;;;;;27.33;21.99;97969.56;5028482;28;20049;-84
2021/11/21 00:23:39;;;;;;;3.50;1.63;;;;;;;27.50;21.97;97969.38;5031397;28;20026;-84
2021/11/21 00:26:05;;;;;;;1.73;1.40;;;;;;;27.61;21.87;97964.16;5031184;28;20064;-85
2021/11/21 00:28:32;;;;;;;2.47;1.50;;;;;;;27.85;21.47;97960.34;5032563;28;20037;-85
2021/11/21 00:30:58;;;;;;;1.38;1.27;;;;;;;27.85;21.30;97957.53;5021341;28;20053;-85
2021/11/21 00:33:24;;;;;;;3.70;1.48;;;;;;;28.16;21.05;97953.94;5026633;28;20034;-85
2021/11/21 00:35:51;;;;;;;2.10;1.55;;;;;;;27.65;21.78;97943.00;5028596;28;20133;-85
2021/11/21 00:38:17;;;;;;;1.60;1.50;;;;;;;27.99;21.49;97942.88;5026987;28;20025;-84
2021/11/21 00:40:43;;;;;;;1.98;1.52;;;;;;;28.13;21.04;97943.56;5030636;28;20512;-85
2021/11/21 00:43:10;;;;;;;1.65;1.42;;;;;;;28.10;21.06;97941.69;5022395;28;20034;-85
2021/11/21 00:45:36;;;;;;;2.60;1.15;;;;;;;28.13;21.01;97938.72;5020660;28;20390;-85
2021/11/21 00:48:03;;;;;;;1.45;1.13;;;;;;;28.45;20.73;97932.50;5023469;28;20038;-85
2021/11/21 00:50:31;;;;;;;1.63;1.00;;;;;;;28.37;20.69;97936.91;5029115;28;20033;-85
2021/11/21 00:53:03;;;;;;;1.30;1.20;;;;;;;28.07;20.78;97926.47;5022444;28;20055;-85
2021/11/21 00:58:16;;;;;;;1.40;1.10;;;;;;;28.66;20.23;97926.00;5027263;28;20041;-85
2021/11/21 01:00:46;;;;;;;2.13;1.92;;;;;;;28.49;20.43;97921.88;5026332;28;20041;-85
2021/11/21 01:03:16;;;;;;;2.45;1.80;;;;;;;28.22;20.73;97921.78;5023962;28;20070;-84
2021/11/21 01:05:43;;;;;;;1.60;1.30;;;;;;;28.20;20.72;97918.66;5026230;28;20037;-84
2021/11/21 01:08:10;;;;;;;1.30;1.00;;;;;;;28.13;20.96;97912.50;5027997;28;20151;-85
2021/11/21 01:10:38;;;;;;;2.50;1.05;;;;;;;28.42;20.60;97904.44;5030368;28;20087;-84
2021/11/21 01:13:05;;;;;;;1.17;1.08;;;;;;;28.56;20.45;97910.28;5029506;28;20025;-85
2021/11/21 01:15:32;;;;;;;2.25;1.40;;;;;;;28.23;20.85;97909.25;5030073;28;20053;-85
2021/11/21 01:17:59;;;;;;;1.25;1.05;;;;;;;28.46;20.59;97902.25;5019895;28;20033;-85
2021/11/21 01:20:29;;;;;;;1.55;1.10;;;;;;;28.35;20.86;97901.91;5025725;28;20405;-84
2021/11/21 01:22:56;;;;;;;1.05;0.90;;;;;;;28.77;20.35;97900.13;5027177;28;20037;-85
2021/11/21 01:25:22;;;;;;;2.03;1.27;;;;;;;28.75;20.47;97889.25;5029291;28;20030;-84
2021/11/21 01:27:49;;;;;;;0.98;0.88;;;;;;;28.87;20.07;97884.72;5024981;28;20033;-84
2021/11/21 01:30:20;;;;;;;2.45;1.40;;;;;;;28.43;20.50;97883.41;5026449;28;20441;-84
2021/11/21 01:32:47;;;;;;;1.20;1.10;;;;;;;28.79;20.18;97886.28;5028147;28;20456;-83
2021/11/21 01:35:14;;;;;;;1.95;0.98;;;;;;;29.15;19.83;97871.38;5027634;28;20109;-83
2021/11/21 01:37:41;;;;;;;1.20;1.10;;;;;;;29.16;19.73;97870.88;5029598;28;20081;-84
2021/11/21 01:40:10;;;;;;;1.50;1.27;;;;;;;29.23;19.68;97870.56;5026292;28;20155;-83
2021/11/21 01:42:36;;;;;;;1.15;0.80;;;;;;;29.43;19.48;97870.84;5026354;28;20092;-83
2021/11/21 01:45:04;;;;;;;1.70;1.13;;;;;;;29.30;19.55;97860.97;5027338;28;20052;-86
2021/11/21 01:47:30;;;;;;;1.00;0.90;;;;;;;29.13;19.85;97860.50;5030022;28;20046;-86
2021/11/21 01:49:56;;;;;;;1.10;1.00;;;;;;;29.27;19.60;97842.13;5024428;28;20057;-86
2021/11/21 01:52:22;;;;;;;1.17;0.95;;;;;;;28.96;19.85;97842.34;5028745;28;20030;-85
2021/11/21 01:54:49;;;;;;;1.30;0.82;;;;;;;29.17;19.76;97843.38;5029316;28;20030;-84
2021/11/21 01:57:18;;;;;;;1.40;1.17;;;;;;;28.96;19.90;97830.22;5029137;28;20393;-84
2021/11/21 01:59:44;;;;;;;0.98;0.90;;;;;;;28.81;19.77;97827.25;5028640;28;20029;-84
2021/11/21 02:02:10;;;;;;;1.40;0.82;;;;;;;29.13;19.78;97826.56;5024814;28;20041;-84
2021/11/21 02:04:36;;;;;;;0.95;0.82;;;;;;;29.22;19.64;97815.25;5026554;28;20040;-84
2021/11/21 02:07:03;;;;;;;1.58;0.77;;;;;;;29.09;19.52;97828.78;5029229;28;20065;-84
2021/11/21 02:09:29;;;;;;;1.30;1.05;;;;;;;29.17;19.61;97817.94;5030115;28;20033;-84
2021/11/21 02:11:55;;;;;;;1.00;0.80;;;;;;;29.11;19.79;97819.81;5024805;28;20033;-84
2021/11/21 02:14:22;;;;;;;1.77;0.98;;;;;;;29.29;19.52;97806.44;5026886;28;20144;-84
2021/11/21 02:16:48;;;;;;;2.08;1.02;;;;;;;29.58;19.19;97803.03;5029730;28;20037;-84
2021/11/21 02:19:17;;;;;;;1.77;1.23;;;;;;;29.54;19.18;97799.63;5029183;28;20072;-84
2021/11/21 02:21:44;;;;;;;3.67;1.42;;;;;;;29.67;19.09;97797.34;5028502;28;20131;-85
2021/11/21 02:24:10;;;;;;;1.25;0.95;;;;;;;29.80;18.77;97797.16;5028258;28;20032;-85
2021/11/21 02:26:36;;;;;;;1.27;0.98;;;;;;;29.77;18.82;97784.75;5028833;28;20176;-85
2021/11/21 02:29:03;;;;;;;1.08;0.90;;;;;;;29.66;19.00;97780.84;5028723;28;20112;-85
2021/11/21 02:31:29;;;;;;;1.20;1.00;;;;;;;29.58;19.12;97774.75;5019168;28;20029;-84
2021/11/21 02:33:55;;;;;;;3.00;1.50;;;;;;;29.43;19.01;97774.66;5021871;28;20052;-84
2021/11/21 02:36:23;;;;;;;1.02;0.82;;;;;;;29.41;19.14;97768.69;5026446;28;20033;-84
2021/11/21 02:38:49;;;;;;;1.15;1.05;;;;;;;29.32;19.13;97765.91;5027662;28;20107;-84
2021/11/21 02:41:16;;;;;;;0.73;0.68;;;;;;;29.45;19.14;97764.91;5024344;28;20037;-84
2021/11/21 02:43:44;;;;;;;0.95;0.93;;;;;;;29.48;18.93;97756.25;5026531;28;20102;-84
2021/11/21 02:46:12;;;;;;;1.15;0.75;;;;;;;29.35;19.12;97755.69;5025365;28;20071;-84
2021/11/21 02:48:40;;;;;;;1.08;0.90;;;;;;;29.25;19.13;97752.09;5021409;28;20065;-84
2021/11/21 02:51:09;;;;;;;0.95;0.63;;;;;;;29.31;19.19;97755.09;5027136;28;20037;-84
2021/11/21 02:53:36;;;;;;;0.80;0.80;;;;;;;29.46;18.72;97755.16;5026967;28;20041;-84
2021/11/21 02:56:12;;;;;;;1.20;0.63;;;;;;;29.37;19.12;97748.28;5025832;28;20057;-84
2021/11/21 02:58:39;;;;;;;1.38;1.02;;;;;;;29.45;18.78;97747.94;5027399;28;20033;-84
2021/11/21 03:01:09;;;;;;;0.80;0.80;;;;;;;29.35;18.82;97745.16;5026849;28;20037;-84
2021/11/21 03:03:36;;;;;;;1.05;0.75;;;;;;;29.37;18.74;97745.47;5023464;28;20044;-84
2021/11/21 03:06:02;;;;;;;1.33;0.88;;;;;;;29.39;18.82;97740.09;5025872;28;20132;-84
2021/11/21 03:08:28;;;;;;;1.10;1.02;;;;;;;29.21;18.82;97734.53;5028449;28;20053;-84
2021/11/21 03:10:55;;;;;;;0.98;0.70;;;;;;;29.16;18.93;97731.53;5026024;28;20087;-84
2021/11/21 03:13:22;;;;;;;0.80;0.68;;;;;;;28.84;18.96;97727.41;5023455;28;20478;-85
2021/11/21 03:15:48;;;;;;;0.93;0.70;;;;;;;28.57;19.15;97718.94;5024628;28;20034;-83
2021/11/21 03:18:14;;;;;;;1.17;0.63;;;;;;;28.54;19.18;97720.66;5027993;28;20100;-84
2021/11/21 03:20:41;;;;;;;0.73;0.50;;;;;;;28.51;18.88;97715.19;5024261;28;20413;-84
2021/11/21 03:23:07;;;;;;;1.23;0.60;;;;;;;28.54;18.94;97708.59;5026635;28;20065;-84
2021/11/21 03:25:35;;;;;;;0.70;0.68;;;;;;;28.55;18.75;97704.50;5023988;28;20061;-84
2021/11/21 03:28:03;;;;;;;1.00;0.88;;;;;;;28.52;18.75;97700.59;5025984;28;20034;-84
2021/11/21 03:30:29;;;;;;;0.77;0.70;;;;;;;28.47;18.67;97706.88;5026973;28;20025;-84
2021/11/21 03:32:55;;;;;;;0.57;0.50;;;;;;;28.36;19.13;97705.78;5021587;28;20537;-84
2021/11/21 03:35:22;;;;;;;0.70;0.60;;;;;;;28.28;19.07;97701.72;5023201;28;20046;-83
2021/11/21 03:37:49;;;;;;;0.85;0.60;;;;;;;28.06;19.23;97691.38;5030039;28;20435;-83
2021/11/21 03:40:16;;;;;;;1.17;0.70;;;;;;;28.01;19.15;97685.56;5028568;28;20037;-85
2021/11/21 03:42:43;;;;;;;0.80;0.63;;;;;;;27.83;19.49;97689.16;5025305;28;20033;-85
2021/11/21 03:45:12;;;;;;;2.00;1.02;;;;;;;27.77;19.53;97687.44;5022998;28;20069;-85
2021/11/21 03:47:38;;;;;;;0.63;0.60;;;;;;;27.76;19.32;97678.19;5025185;28;20029;-84
2021/11/21 03:50:07;;;;;;;0.80;0.80;;;;;;;27.59;19.74;97682.53;5027867;28;20037;-84
2021/11/21 03:52:33;;;;;;;1.23;0.90;;;;;;;27.45;20.05;97674.66;5028060;28;20120;-84
2021/11/21 03:54:59;;;;;;;0.70;0.70;;;;;;;27.39;20.03;97682.19;5028164;28;20448;-84
2021/11/21 03:57:26;;;;;;;1.40;0.80;;;;;;;27.19;19.97;97662.81;5028617;28;20538;-84
2021/11/21 03:59:52;;;;;;;1.25;0.90;;;;;;;27.30;19.50;97668.03;5023615;28;20044;-84
2021/11/21 04:02:18;;;;;;;0.88;0.80;;;;;;;27.30;20.01;97670.84;5027430;28;20036;-83
2021/11/21 04:04:45;;;;;;;1.08;0.75;;;;;;;27.38;19.66;97669.31;5025947;28;20042;-84
2021/11/21 04:07:11;;;;;;;0.85;0.68;;;;;;;27.18;19.58;97657.66;5026936;28;20034;-84
2021/11/21 04:09:38;;;;;;;1.25;1.00;;;;;;;26.84;19.75;97669.13;5024973;28;20082;-83
2021/11/21 04:12:08;;;;;;;0.60;0.60;;;;;;;26.79;19.84;97672.53;5025861;28;20026;-84
2021/11/21 04:14:34;;;;;;;0.80;0.70;;;;;;;26.99;19.56;97662.47;5038569;28;20517;-84
2021/11/21 04:17:00;;;;;;;0.70;0.70;;;;;;;27.10;19.54;97676.09;5026240;28;20037;-84
2021/11/21 04:19:26;;;;;;;0.82;0.60;;;;;;;26.86;19.66;97666.63;5022931;28;20647;-84
2021/11/21 04:21:52;;;;;;;1.00;0.85;;;;;;;26.57;20.02;97672.56;5026601;28;20457;-84
2021/11/21 04:24:18;;;;;;;0.80;0.77;;;;;;;26.54;20.51;97665.00;5026425;28;20067;-84
2021/11/21 04:26:46;;;;;;;1.60;0.80;;;;;;;26.67;20.16;97669.34;5024937;28;20041;-84
2021/11/21 04:29:13;;;;;;;1.55;0.90;;;;;;;26.89;19.87;97668.50;5027435;28;20037;-84
2021/11/21 04:31:39;;;;;;;0.55;0.55;;;;;;;26.84;19.91;97655.03;5021517;28;20060;-84
2021/11/21 04:34:05;;;;;;;0.65;0.60;;;;;;;26.97;19.65;97652.91;5027649;28;20045;-84
2021/11/21 04:36:32;;;;;;;1.33;0.55;;;;;;;27.09;19.41;97654.81;5025552;28;20021;-84
2021/11/21 04:38:58;;;;;;;1.60;0.90;;;;;;;27.25;19.35;97654.56;5025876;28;20068;-84
2021/11/21 04:41:25;;;;;;;0.57;0.57;;;;;;;27.15;19.47;97655.75;5022741;28;20505;-84
2021/11/21 04:43:51;;;;;;;0.95;0.60;;;;;;;26.74;19.67;97654.19;5026102;28;20442;-83
2021/11/21 04:46:17;;;;;;;0.77;0.70;;;;;;;26.57;20.24;97652.84;5024015;28;20083;-84
2021/11/21 04:48:44;;;;;;;2.17;1.13;;;;;;;26.55;20.17;97658.94;5027581;28;20116;-83
2021/11/21 04:51:11;;;;;;;1.10;0.75;;;;;;;26.74;19.85;97646.53;5026645;28;20358;-83
2021/11/21 04:53:37;;;;;;;1.02;0.80;;;;;;;26.30;20.12;97644.25;5025032;28;20065;-83
2021/11/21 04:56:04;;;;;;;1.25;0.80;;;;;;;26.53;19.72;97636.09;5026582;28;20038;-84
2021/11/21 04:58:30;;;;;;;0.90;0.70;;;;;;;26.34;19.99;97631.59;5025662;28;20124;-84
2021/11/21 05:00:56;;;;;;;0.88;0.70;;;;;;;26.53;19.84;97627.66;5027939;28;20516;-84
2021/11/21 05:03:23;;;;;;;0.80;0.70;;;;;;;26.62;19.66;97619.25;5029361;28;20041;-84
2021/11/21 05:05:49;;;;;;;1.02;0.60;;;;;;;26.76;19.43;97614.31;5029634;28;20571;-83
2021/11/21 05:08:15;;;;;;;0.82;0.60;;;;;;;26.80;19.60;97624.19;5028497;28;20060;-84
2021/11/21 05:10:41;;;;;;;1.15;0.70;;;;;;;26.63;19.84;97617.19;5029449;28;20045;-83
2021/11/21 05:13:07;;;;;;;0.80;0.80;;;;;;;26.38;20.05;97609.72;5027714;28;20041;-83
2021/11/21 05:15:34;;;;;;;0.77;0.75;;;;;;;26.05;20.07;97614.16;5025350;28;20061;-83
2021/11/21 05:18:00;;;;;;;1.13;1.02;;;;;;;26.11;20.26;97606.75;5027229;28;20396;-83
2021/11/21 05:20:26;;;;;;;1.85;1.00;;;;;;;26.18;20.06;97605.69;5029588;28;20530;-83
2021/11/21 05:22:53;;;;;;;0.82;0.60;;;;;;;26.25;20.34;97608.25;5028671;28;20046;-83
2021/11/21 05:25:19;;;;;;;0.80;0.75;;;;;;;26.28;20.00;97608.09;5029280;28;20022;-83
2021/11/21 05:27:49;;;;;;;1.15;0.95;;;;;;;26.58;19.68;97600.91;5026922;28;20041;-83
2021/11/21 05:30:17;;;;;;;1.75;0.80;;;;;;;26.89;19.13;97609.34;5030482;28;20025;-83
2021/11/21 05:32:44;;;;;;;1.35;0.80;;;;;;;27.02;18.77;97599.53;5027257;28;20088;-83
2021/11/21 05:35:11;;;;;;;1.02;0.85;;;;;;;26.91;18.90;97604.81;5027659;28;20034;-84
2021/11/21 05:37:37;;;;;;;1.10;0.93;;;;;;;26.93;18.53;97612.81;5028621;28;20037;-84
2021/11/21 05:40:09;;;;;;;3.17;1.40;;;;;;;26.69;19.29;97604.09;5022006;28;20030;-83
2021/11/21 05:42:36;;;;;;;2.78;1.20;;;;;;;26.74;19.06;97604.28;5029164;28;20033;-83
2021/11/21 05:45:02;;;;;;;1.60;1.08;;;;;;;26.81;18.97;97594.00;5024499;28;20499;-83
2021/11/21 05:47:28;;;;;;;1.00;0.80;;;;;;;26.55;19.49;97597.00;5023007;28;20112;-83
2021/11/21 05:49:55;;;;;;;1.33;0.80;;;;;;;26.34;19.34;97589.38;5024988;28;20033;-83
2021/11/21 05:52:21;;;;;;;1.25;0.90;;;;;;;26.20;19.45;97587.13;5028751;28;20520;-82
2021/11/21 05:54:47;;;;;;;0.75;0.60;;;;;;;26.33;19.30;97584.97;5027112;28;20033;-82
2021/11/21 05:57:13;;;;;;;1.00;0.75;;;;;;;26.48;18.79;97586.00;5028550;28;20067;-82
2021/11/21 05:59:40;;;;;;;1.02;0.77;;;;;;;26.25;18.86;97583.72;5023634;28;20116;-82
2021/11/21 06:02:07;;;;;;;2.25;0.93;;;;;;;26.23;18.80;97580.56;5023130;28;20045;-83
2021/11/21 06:04:33;;;;;;;0.63;0.60;;;;;;;25.82;19.43;97575.25;5028468;28;20033;-82
2021/11/21 06:06:59;;;;;;;0.98;0.77;;;;;;;25.69;19.62;97583.78;5025864;28;20048;-83
2021/11/21 06:09:26;;;;;;;1.25;0.75;;;;;;;25.92;19.24;97588.16;5026565;28;20034;-83
2021/11/21 06:11:54;;;;;;;0.82;0.75;;;;;;;25.99;19.10;97583.06;5026122;28;20033;-82
2021/11/21 06:14:21;;;;;;;0.85;0.80;;;;;;;25.96;19.12;97583.16;5027867;28;20164;-83
2021/11/21 06:16:48;;;;;;;0.93;0.80;;;;;;;25.94;19.16;97592.06;5026995;28;20037;-82
2021/11/21 06:19:14;;;;;;;1.60;0.90;;;;;;;25.52;19.98;97598.44;5028781;28;20045;-83
2021/11/21 06:21:40;;;;;;;0.95;0.73;;;;;;;25.53;20.13;97600.03;5023496;28;20438;-83
2021/11/21 06:24:07;;;;;;;1.17;0.90;;;;;;;25.86;19.84;97579.50;5027329;28;20081;-82
2021/11/21 06:26:34;;;;;;;1.17;1.05;;;;;;;26.20;19.33;97592.75;5024087;28;20124;-82
2021/11/21 06:29:01;;;;;;;2.35;1.20;;;;;;;26.39;18.86;97582.38;5027274;28;20041;-82
2021/11/21 06:31:29;;;;;;;1.92;1.15;;;;;;;26.21;18.78;97577.41;5025291;28;20489;-82
2021/11/21 06:33:56;;;;;;;1.42;1.10;;;;;;;25.98;18.61;97572.25;5022549;28;20044;-82
2021/11/21 06:36:22;;;;;;;1.35;0.88;;;;;;;25.89;19.06;97575.78;5028281;28;20053;-82
2021/11/21 06:38:49;;;;;;;1.05;0.85;;;;;;;25.06;19.83;97574.75;5027540;28;20126;-83
2021/11/21 06:41:15;;;;;;;1.30;0.90;;;;;;;24.96;20.63;97573.84;5023436;28;20098;-83
2021/11/21 06:43:41;;;;;;;1.58;1.08;;;;;;;25.57;19.72;97566.94;5026177;28;20519;-82
2021/11/21 06:46:07;;;;;;;1.13;1.00;;;;;;;26.11;18.94;97555.31;5018838;28;20516;-82
2021/11/21 06:48:35;;;;;;;0.98;0.90;;;;;;;25.50;19.75;97548.31;5021448;28;20055;-82
2021/11/21 06:51:02;;;;;;;1.25;0.90;;;;;;;25.62;19.49;97550.28;5025954;28;20124;-82
2021/11/21 06:53:28;;;;;;;2.25;1.42;;;;;;;25.87;19.93;97561.41;5021475;28;20033;-82
2021/11/21 06:55:54;;;;;;;1.55;0.95;;;;;;;25.74;19.72;97557.84;5025627;28;20060;-82
2021/11/21 06:58:20;;;;;;;1.23;1.00;;;;;;;25.98;19.14;97561.78;5026678;28;20389;-82
2021/11/21 07:00:47;;;;;;;1.05;0.95;;;;;;;26.11;19.39;97566.56;5024985;28;20075;-83
2021/11/21 07:03:13;;;;;;;1.25;0.90;;;;;;;26.17;19.50;97567.53;5024933;28;20025;-83
2021/11/21 07:05:40;;;;;;;1.05;0.90;;;;;;;26.30;19.38;97566.19;5023914;28;20526;-83
2021/11/21 07:08:06;;;;;;;1.05;0.90;;;;;;;26.53;19.07;97557.25;5026547;28;20036;-83
2021/11/21 07:10:32;;;;;;;1.85;1.08;;;;;;;26.61;18.74;97554.91;5021627;28;20109;-83
2021/11/21 07:13:01;;;;;;;1.42;1.10;;;;;;;26.64;18.67;97554.78;5025815;28;20034;-84
2021/11/21 07:15:27;;;;;;;1.48;1.10;;;;;;;26.79;18.99;97551.41;5022377;28;20033;-83
2021/11/21 07:17:54;;;;;;;1.20;1.10;;;;;;;26.54;19.11;97555.19;5020571;28;20109;-83
2021/11/21 07:20:21;;;;;;;2.28;1.35;;;;;;;25.11;20.55;97548.88;5022033;28;20045;-83
2021/11/21 07:22:50;;;;;;;1.52;1.42;;;;;;;25.17;20.73;97555.47;5022701;28;20137;-84
2021/11/21 07:25:18;;;;;;;0.93;0.88;;;;;;;25.64;20.21;97553.44;5016486;28;20060;-83
2021/11/21 07:27:45;;;;;;;1.45;1.05;;;;;;;26.10;19.76;97554.53;5019975;28;20137;-83
2021/11/21 07:30:14;;;;;;;1.35;0.90;;;;;;;26.53;19.19;97557.25;5022236;28;20032;-83
2021/11/21 07:32:41;;;;;;;2.03;1.40;;;;;;;26.79;18.89;97559.88;5019318;28;20037;-83
2021/11/21 07:35:07;;;;;;;2.05;1.48;;;;;;;26.73;18.52;97566.06;5021309;28;20030;-83
2021/11/21 07:37:33;;;;;;;2.55;1.73;;;;;;;26.65;18.78;97556.34;5023454;28;20045;-83
2021/11/21 07:39:59;;;;;;;3.47;2.40;;;;;;;26.52;19.10;97561.31;5021437;28;20382;-83
2021/11/21 07:42:26;;;;;;;4.07;2.67;;;;;;;26.39;19.16;97555.00;5020125;28;20049;-83
2021/11/21 07:44:53;;;;;;;5.10;3.53;;;;;;;26.64;18.88;97551.97;5023388;28;20033;-84
2021/11/21 07:47:21;;;;;;;4.80;3.42;;;;;;;26.42;19.16;97547.66;5019111;28;20087;-84
2021/11/21 07:49:47;;;;;;;2.47;1.50;;;;;;;26.06;19.61;97536.97;5017218;28;20043;-86
2021/11/21 07:52:13;;;;;;;3.33;1.55;;;;;;;26.23;19.29;97534.75;5013122;28;20073;-83
2021/11/21 07:54:43;;;;;;;2.88;1.75;;;;;;;26.45;19.36;97553.13;5013864;28;20034;-83
2021/11/21 07:57:09;;;;;;;2.83;1.60;;;;;;;26.56;19.28;97547.06;5013705;28;20045;-82
2021/11/21 07:59:35;;;;;;;2.83;1.85;;;;;;;26.76;19.02;97550.31;5012660;28;20042;-83
2021/11/21 08:02:02;;;;;;;4.15;2.40;;;;;;;27.01;18.80;97552.09;5016025;28;20033;-82
2021/11/21 08:04:28;;;;;;;3.05;2.35;;;;;;;27.11;18.75;97548.03;5014075;28;20616;-82
2021/11/21 08:06:55;;;;;;;17.77;7.72;;;;;;;27.26;18.30;97543.34;5011953;28;20060;-83
2021/11/21 08:09:21;;;;;;;31.63;14.38;;;;;;;27.36;18.04;97536.47;5012016;28;20033;-83
2021/11/21 08:11:47;;;;;;;28.27;13.77;;;;;;;27.47;18.00;97536.81;5012677;28;20429;-83
2021/11/21 08:14:13;;;;;;;15.20;8.15;;;;;;;27.04;18.37;97534.25;5014241;28;20037;-82
2021/11/21 08:16:41;;;;;;;14.25;8.40;;;;;;;26.48;18.88;97524.06;5014676;28;20654;-83
2021/11/21 08:19:10;;;;;;;18.33;10.35;;;;;;;25.84;19.90;97525.75;5011558;28;20030;-84
2021/11/21 08:21:36;;;;;;;19.60;9.55;;;;;;;25.25;20.81;97515.44;5015238;28;20050;-82
2021/11/21 08:24:03;;;;;;;17.83;10.25;;;;;;;25.60;20.62;97516.19;5010771;28;20048;-84
2021/11/21 08:26:30;;;;;;;13.40;7.05;;;;;;;25.99;20.69;97518.34;5017503;28;20786;-83
2021/11/21 08:28:56;;;;;;;11.35;5.18;;;;;;;26.55;20.14;97520.97;5019017;28;20029;-84
2021/11/21 08:31:22;;;;;;;11.02;6.07;;;;;;;27.00;19.52;97520.31;5020467;28;20424;-84
2021/11/21 08:33:48;;;;;;;8.20;5.10;;;;;;;27.20;19.32;97515.03;5029158;28;20033;-83
2021/11/21 08:36:15;;;;;;;7.65;3.83;;;;;;;27.14;19.31;97518.94;5028377;28;20038;-83
2021/11/21 08:38:41;;;;;;;9.18;3.17;;;;;;;26.94;19.66;97513.72;5028102;28;20037;-84
2021/11/21 08:41:07;;;;;;;6.05;3.33;;;;;;;26.89;19.72;97517.16;5028553;28;20079;-84
2021/11/21 08:43:33;;;;;;;5.93;3.85;;;;;;;26.81;20.01;97509.47;5022907;28;20022;-84
2021/11/21 08:46:00;;;;;;;5.45;3.10;;;;;;;26.62;20.15;97511.44;5021678;28;20045;-84
2021/11/21 08:48:26;;;;;;;4.80;3.17;;;;;;;26.54;20.13;97513.75;5028234;28;20030;-85
2021/11/21 08:50:53;;;;;;;4.60;3.08;;;;;;;26.70;20.13;97510.66;5023431;28;20042;-84
2021/11/21 08:53:20;;;;;;;4.35;2.65;;;;;;;26.67;20.39;97513.66;5027936;28;20044;-86
2021/11/21 08:55:49;;;;;;;4.53;2.15;;;;;;;26.70;20.09;97512.69;5021411;28;20520;-85
2021/11/21 08:58:16;;;;;;;4.40;2.95;;;;;;;27.09;20.12;97508.28;5022119;28;20055;-85
2021/11/21 09:00:42;;;;;;;7.43;3.65;;;;;;;27.58;19.69;97497.66;5024960;28;20687;-87
2021/11/21 09:03:08;;;;;;;6.63;4.32;;;;;;;28.06;19.32;97507.13;5024467;28;20060;-85
2021/11/21 09:05:37;;;;;;;6.28;3.78;;;;;;;28.28;18.87;97499.22;5023473;28;20032;-87
2021/11/21 09:08:03;;;;;;;7.78;3.88;;;;;;;28.52;18.68;97493.63;5024250;28;20432;-85
2021/11/21 09:10:29;;;;;;;8.45;3.95;;;;;;;28.70;18.53;97485.88;5026126;28;20473;-85
2021/11/21 09:12:55;;;;;;;5.30;3.05;;;;;;;28.88;18.37;97490.63;5023612;28;20134;-86
2021/11/21 09:15:23;;;;;;;3.38;2.42;;;;;;;28.94;18.42;97497.16;5022087;28;20037;-83
2021/11/21 09:17:52;;;;;;;5.22;2.55;;;;;;;29.06;18.47;97487.66;5022457;28;20030;-83
2021/11/21 09:20:19;;;;;;;4.38;2.72;;;;;;;29.20;18.51;97475.63;5024249;28;20079;-85
2021/11/21 09:22:46;;;;;;;3.28;2.25;;;;;;;29.14;18.48;97471.91;5024303;28;20045;-85
2021/11/21 09:25:12;;;;;;;3.42;2.35;;;;;;;29.14;18.27;97471.13;5024177;28;20025;-87
2021/11/21 09:27:38;;;;;;;3.17;1.92;;;;;;;29.35;18.70;97467.97;5024741;28;20088;-86
2021/11/21 09:30:07;;;;;;;2.67;2.08;;;;;;;29.54;18.72;97467.81;5021836;28;20092;-85
2021/11/21 09:32:34;;;;;;;2.58;2.30;;;;;;;28.92;19.02;97464.97;5007341;28;20037;-86
2021/11/21 09:35:01;;;;;;;2.22;2.00;;;;;;;28.89;18.89;97463.94;5020815;28;20026;-85
2021/11/21 09:37:27;;;;;;;3.28;2.25;;;;;;;29.08;19.51;97456.09;5025406;28;20064;-87
2021/11/21 09:39:54;;;;;;;3.33;1.95;;;;;;;29.36;19.24;97452.56;5023234;28;20072;-84
2021/11/21 09:42:21;;;;;;;2.78;2.20;;;;;;;29.51;19.68;97449.75;5025654;28;20029;-85
2021/11/21 09:44:47;;;;;;;2.95;1.83;;;;;;;29.74;18.94;97450.94;5023074;28;20057;-85
2021/11/21 09:47:13;;;;;;;3.60;2.00;;;;;;;30.01;18.79;97437.28;5023890;28;20046;-87
2021/11/21 09:49:40;;;;;;;2.88;2.10;;;;;;;29.92;19.22;97434.56;5017173;28;20501;-84
2021/11/21 09:52:07;;;;;;;3.08;2.08;;;;;;;29.99;18.77;97441.91;5017461;28;20041;-83
2021/11/21 09:54:33;;;;;;;3.55;2.25;;;;;;;28.13;20.26;97432.63;5022080;28;20040;-84
2021/11/21 09:57:00;;;;;;;3.00;2.00;;;;;;;28.78;20.66;97424.09;5024004;28;20025;-83
2021/11/21 10:00:07;;;;;;;2.55;1.88;;;;;;;28.90;19.79;97425.13;5021649;28;20049;-85
2021/11/21 10:02:36;;;;;;;2.55;1.77;;;;;;;27.34;20.83;97431.84;5022096;28;20042;-85
2021/11/21 10:05:29;;;;;;;5.70;2.13;;;;;;;27.10;21.42;97422.47;5022981;28;20492;-85
2021/11/21 10:08:06;;;;;;;4.18;2.80;;;;;;;25.44;22.69;97420.84;5016748;28;20053;-85
2021/11/21 10:10:47;;;;;;;2.83;2.53;;;;;;;25.89;23.51;97414.66;5022335;28;20516;-85
2021/11/21 10:13:34;;;;;;;;;;;;;;;26.88;21.54;97410.59;5022596;28;20045;-85
2021/11/21 10:16:27;;;;;;;3.58;2.17;;;;;;;26.66;21.39;97407.88;5023317;28;19924;-85
2021/11/21 10:19:08;;;;;;;2.22;2.00;;;;;;;24.51;24.04;97411.31;5021763;28;20055;-85
2021/11/21 10:21:51;;;;;;;3.35;2.58;;;;;;;25.72;23.70;97407.75;5020797;28;20050;-85
2021/11/21 10:24:30;;;;;;;3.65;2.63;;;;;;;25.37;23.70;97415.44;5024093;28;20049;-84
2021/11/21 10:27:11;;;;;;;2.95;2.55;;;;;;;25.57;23.44;97413.13;5023032;28;20045;-84
2021/11/21 10:29:47;;;;;;;5.57;3.42;;;;;;;25.39;23.59;97410.94;5021533;28;20076;-85
2021/11/21 10:32:19;;;;;;;3.90;3.13;;;;;;;25.81;23.75;97413.41;5019213;28;20417;-84
2021/11/21 10:34:57;;;;;;;4.60;3.13;;;;;;;25.45;23.46;97413.97;5022802;28;20084;-84
2021/11/21 10:37:37;;;;;;;3.67;3.05;;;;;;;26.56;22.55;97412.69;5018427;28;20026;-83
2021/11/21 10:40:10;;;;;;;3.75;2.83;;;;;;;26.68;22.89;97400.53;5023473;28;20037;-84
2021/11/21 10:42:39;;;;;;;4.63;3.67;;;;;;;25.74;23.59;97400.38;5024400;28;20489;-83
2021/11/21 10:45:08;;;;;;;4.25;3.58;;;;;;;26.86;22.13;97396.19;5021301;28;20037;-84
2021/11/21 10:47:45;;;;;;;4.40;3.17;;;;;;;26.26;23.18;97396.69;5020358;28;20507;-85
2021/11/21 10:50:14;;;;;;;4.82;3.45;;;;;;;26.63;23.03;97384.25;5021995;28;20069;-84
2021/11/21 10:52:47;;;;;;;4.88;3.70;;;;;;;26.13;23.01;97381.97;5016824;28;20602;-84
2021/11/21 10:55:15;;;;;;;6.68;3.70;;;;;;;26.61;22.68;97381.13;5022253;28;20109;-84
2021/11/21 10:57:42;;;;;;;6.75;4.30;;;;;;;25.33;24.24;97378.28;5017137;28;20034;-85
2021/11/21 11:00:20;;;;;;;6.95;4.65;;;;;;;25.49;23.99;97380.88;5024790;28;20033;-87
2021/11/21 11:02:47;;;;;;;7.05;4.95;;;;;;;26.10;23.42;97374.47;5018710;28;20520;-87
2021/11/21 11:05:20;;;;;;;7.45;5.82;;;;;;;26.41;22.75;97375.16;5023068;28;20075;-83
2021/11/21 11:08:02;;;;;;;8.10;5.38;;;;;;;26.10;22.85;97377.28;5016824;28;20037;-84
2021/11/21 11:10:32;;;;;;;8.07;5.45;;;;;;;24.89;24.74;97377.50;5014426;28;20088;-85
2021/11/21 11:13:03;;;;;;;6.33;4.70;;;;;;;25.23;24.10;97373.84;5021499;28;20029;-84
2021/11/21 11:15:34;;;;;;;9.65;5.63;;;;;;;24.36;25.43;97368.16;5023901;28;20384;-87
2021/11/21 11:18:00;;;;;;;8.20;5.47;;;;;;;25.47;23.74;97362.91;5020614;28;20418;-85
2021/11/21 11:20:27;;;;;;;7.63;5.22;;;;;;;23.01;27.06;97362.34;5017948;28;20402;-86
2021/11/21 11:22:55;;;;;;;7.57;5.82;;;;;;;23.64;26.43;97359.66;5026025;28;20030;-84
2021/11/21 11:25:31;;;;;;;8.13;5.15;;;;;;;24.95;24.46;97367.25;5023867;28;20048;-86
2021/11/21 11:28:19;;;;;;;6.57;4.70;;;;;;;26.55;22.71;97363.28;5021816;28;20076;-86
2021/11/21 11:30:47;;;;;;;7.15;4.50;;;;;;;25.53;23.26;97370.31;5031020;28;20032;-86
2021/11/21 11:33:16;;;;;;;10.10;4.78;;;;;;;24.55;24.40;97366.28;5023028;28;20390;-87
2021/11/21 11:35:44;;;;;;;6.03;4.90;;;;;;;24.87;24.67;97370.78;5023309;28;20044;-86
2021/11/21 11:38:12;;;;;;;8.20;5.57;;;;;;;24.81;24.70;97367.75;5021406;28;20547;-88
2021/11/21 11:40:44;;;;;;;9.15;5.85;;;;;;;24.34;24.99;97362.19;5023749;28;20068;-86